Time,TemperatureF,DewpointF,PressureIn,WindDirection,WindDirectionDegrees,WindSpeedMPH,WindSpeedGustMPH,Humidity,HourlyPrecipIn,Conditions,Clouds,dailyrainin,SolarRadiationWatts/m^2,SoftwareType,DateUTC
2013-05-09 00:01:00,57.0,44.0,-100.00,ESE,103,0.0,0.0,61,0.00,,,0.00,0.000000,,2013-05-09 07:01:00,
2013-05-09 00:32:00,56.0,44.0,-100.00,ESE,113,0.0,0.0,63,0.00,,,0.00,0.000000,,2013-05-09 07:32:00,
2013-05-09 00:43:00,56.0,44.0,-100.00,ESE,113,0.0,0.0,63,0.00,,,0.00,0.000000,,2013-05-09 07:43:00,
2013-05-09 00:52:00,56.0,44.0,-100.00,ESE,113,0.0,0.0,63,0.00,,,0.00,0.000000,,2013-05-09 07:52:00,
2013-05-09 01:02:00,56.0,44.0,-100.00,ESE,113,0.0,0.0,63,0.00,,,0.00,0.000000,,2013-05-09 08:02:00,
2013-05-09 01:32:00,57.0,42.0,-100.00,NW,325,0.0,0.0,58,0.00,,,0.00,0.000000,,2013-05-09 08:32:00,
2013-05-09 01:42:00,57.0,42.0,-100.00,NW,325,0.0,0.0,58,0.00,,,0.00,0.000000,,2013-05-09 08:42:00,
2013-05-09 02:32:00,58.0,40.0,-100.00,ESE,114,0.0,0.0,51,-99.99,,,0.00,0.000000,,2013-05-09 09:32:00,
2013-05-09 02:43:00,58.0,40.0,-100.00,ESE,114,0.0,0.0,51,-99.99,,,0.00,0.000000,,2013-05-09 09:43:00,
2013-05-09 02:53:00,58.0,40.0,-100.00,ESE,114,0.0,0.0,51,-99.99,,,0.00,0.000000,,2013-05-09 09:53:00,
2013-05-09 03:02:00,58.0,40.0,-100.00,ESE,114,0.0,0.0,51,-99.99,,,0.00,0.000000,,2013-05-09 10:02:00,
2013-05-09 03:33:00,56.0,40.0,-100.00,ESE,117,0.0,0.0,55,-99.99,,,0.00,0.000000,,2013-05-09 10:33:00,
2013-05-09 03:42:00,56.0,40.0,-100.00,ESE,117,0.0,0.0,55,-99.99,,,0.00,0.000000,,2013-05-09 10:42:00,
2013-05-09 03:52:00,56.0,40.0,-100.00,ESE,117,0.0,0.0,55,-99.99,,,0.00,0.000000,,2013-05-09 10:52:00,
2013-05-09 04:02:00,56.0,40.0,-100.00,ESE,117,0.0,0.0,55,-99.99,,,0.00,0.000000,,2013-05-09 11:02:00,
2013-05-09 04:32:00,56.0,40.0,-100.00,ESE,121,0.0,0.0,54,0.00,,,0.00,0.000000,,2013-05-09 11:32:00,
2013-05-09 04:42:00,56.0,40.0,-100.00,ESE,121,0.0,0.0,54,0.00,,,0.00,0.000000,,2013-05-09 11:42:00,
2013-05-09 04:52:00,56.0,40.0,-100.00,ESE,121,0.0,0.0,54,0.00,,,0.00,0.000000,,2013-05-09 11:52:00,
2013-05-09 05:01:00,56.0,40.0,-100.00,ESE,121,0.0,0.0,54,0.00,,,0.00,0.000000,,2013-05-09 12:01:00,
2013-05-09 05:32:00,55.0,38.0,-100.00,SE,136,0.0,0.0,52,0.00,,,-99.99,0.000000,,2013-05-09 12:32:00,
2013-05-09 05:52:00,55.0,38.0,-100.00,SE,136,0.0,0.0,52,0.00,,,-99.99,0.000000,,2013-05-09 12:52:00,
2013-05-09 06:01:00,55.0,38.0,-100.00,SE,136,0.0,0.0,52,0.00,,,-99.99,0.000000,,2013-05-09 13:01:00,
2013-05-09 06:32:00,54.0,39.0,-100.00,North,356,0.0,0.0,56,0.00,,,0.00,17.000000,,2013-05-09 13:32:00,
2013-05-09 06:42:00,54.0,39.0,-100.00,North,356,0.0,0.0,56,0.00,,,0.00,17.000000,,2013-05-09 13:42:00,
2013-05-09 06:52:00,54.0,39.0,-100.00,North,356,0.0,0.0,56,0.00,,,0.00,17.000000,,2013-05-09 13:52:00,
2013-05-09 07:01:00,54.0,39.0,-100.00,North,356,0.0,0.0,56,0.00,,,0.00,17.000000,,2013-05-09 14:01:00,
2013-05-09 07:32:00,61.0,42.0,-100.00,ENE,58,0.0,0.0,49,0.00,,,0.00,215.000000,,2013-05-09 14:32:00,
2013-05-09 08:33:00,69.0,43.0,-100.00,SE,141,0.0,0.0,39,-99.99,,,0.00,440.000000,,2013-05-09 15:33:00,
2013-05-09 09:33:00,75.0,47.0,-100.00,WSW,252,0.0,0.0,37,-99.99,,,0.00,666.000000,,2013-05-09 16:33:00,
2013-05-09 10:32:00,72.0,46.0,-100.00,WSW,254,0.0,0.0,40,-99.99,,,0.00,861.000000,,2013-05-09 17:32:00,
2013-05-09 10:55:00,72.0,46.0,-100.00,WSW,254,0.0,0.0,40,-99.99,,,0.00,861.000000,,2013-05-09 17:55:00,
2013-05-09 11:01:00,72.0,46.0,-100.00,WSW,254,0.0,0.0,40,-99.99,,,0.00,861.000000,,2013-05-09 18:01:00,
2013-05-09 11:32:00,75.0,50.0,-100.00,West,271,0.0,0.0,42,0.00,,,0.00,1016.000000,,2013-05-09 18:32:00,
2013-05-09 11:42:00,75.0,50.0,-100.00,West,271,0.0,0.0,42,0.00,,,0.00,1016.000000,,2013-05-09 18:42:00,
2013-05-09 11:52:00,75.0,50.0,-100.00,West,271,0.0,0.0,42,0.00,,,0.00,1016.000000,,2013-05-09 18:52:00,
2013-05-09 12:01:00,75.0,50.0,-100.00,West,271,0.0,0.0,42,0.00,,,0.00,1016.000000,,2013-05-09 19:01:00,
2013-05-09 13:32:00,79.0,48.0,-100.00,WSW,256,0.0,0.0,34,-99.99,,,0.00,1117.000000,,2013-05-09 20:32:00,
2013-05-09 13:42:00,79.0,48.0,-100.00,WSW,256,0.0,0.0,34,-99.99,,,0.00,1117.000000,,2013-05-09 20:42:00,
2013-05-09 13:52:00,79.0,48.0,-100.00,WSW,256,0.0,0.0,34,-99.99,,,0.00,1117.000000,,2013-05-09 20:52:00,
2013-05-09 14:01:00,79.0,48.0,-100.00,WSW,256,0.0,0.0,34,-99.99,,,0.00,1117.000000,,2013-05-09 21:01:00,
2013-05-09 15:33:00,83.0,48.0,-100.00,ENE,60,0.0,0.0,30,-99.99,,,0.00,1029.000000,,2013-05-09 22:33:00,
2013-05-09 15:42:00,83.0,48.0,-100.00,ENE,60,0.0,0.0,30,-99.99,,,0.00,1029.000000,,2013-05-09 22:42:00,
2013-05-09 15:52:00,83.0,48.0,-100.00,ENE,60,0.0,0.0,30,-99.99,,,0.00,1029.000000,,2013-05-09 22:52:00,
2013-05-09 16:02:00,83.0,48.0,-100.00,ENE,60,0.0,0.0,30,-99.99,,,0.00,1029.000000,,2013-05-09 23:02:00,
2013-05-09 16:32:00,82.0,45.0,-100.00,SSW,213,0.0,0.0,27,0.00,,,0.00,851.000000,,2013-05-09 23:32:00,
2013-05-09 16:42:00,82.0,45.0,-100.00,SSW,213,0.0,0.0,27,0.00,,,0.00,851.000000,,2013-05-09 23:42:00,
2013-05-09 16:52:00,82.0,45.0,-100.00,SSW,213,0.0,0.0,27,0.00,,,0.00,851.000000,,2013-05-09 23:52:00,
2013-05-09 17:01:00,82.0,45.0,-100.00,SSW,213,0.0,0.0,27,0.00,,,0.00,851.000000,,2013-05-10 00:01:00,
2013-05-09 18:32:00,78.0,39.0,-100.00,WSW,244,0.0,0.0,25,-99.99,,,0.00,428.000000,,2013-05-10 01:32:00,
2013-05-09 18:42:00,78.0,39.0,-100.00,WSW,244,0.0,0.0,25,-99.99,,,0.00,428.000000,,2013-05-10 01:42:00,
2013-05-09 18:52:00,78.0,39.0,-100.00,WSW,244,0.0,0.0,25,-99.99,,,0.00,428.000000,,2013-05-10 01:52:00,
2013-05-09 19:01:00,78.0,39.0,-100.00,WSW,244,0.0,0.0,25,-99.99,,,0.00,428.000000,,2013-05-10 02:01:00,
2013-05-09 19:32:00,73.0,38.0,-100.00,North,8,0.0,0.0,28,0.00,,,0.00,48.000000,,2013-05-10 02:32:00,
2013-05-09 19:42:00,73.0,38.0,-100.00,North,8,0.0,0.0,28,0.00,,,0.00,48.000000,,2013-05-10 02:42:00,
2013-05-09 19:52:00,73.0,38.0,-100.00,North,8,0.0,0.0,28,0.00,,,0.00,48.000000,,2013-05-10 02:52:00,
2013-05-09 20:01:00,73.0,38.0,-100.00,North,8,0.0,0.0,28,0.00,,,0.00,48.000000,,2013-05-10 03:01:00,
2013-05-09 20:33:00,64.0,39.0,-100.00,SW,219,0.0,0.0,40,0.00,,,0.00,10.000000,,2013-05-10 03:33:00,
2013-05-09 20:43:00,64.0,39.0,-100.00,SW,219,0.0,0.0,40,0.00,,,0.00,10.000000,,2013-05-10 03:43:00,
2013-05-09 20:53:00,64.0,39.0,-100.00,SW,219,0.0,0.0,40,0.00,,,0.00,10.000000,,2013-05-10 03:53:00,
2013-05-09 21:02:00,64.0,39.0,-100.00,SW,219,0.0,0.0,40,0.00,,,0.00,10.000000,,2013-05-10 04:02:00,
2013-05-09 21:33:00,61.0,36.0,-100.00,ESE,119,0.0,0.0,40,0.00,,,0.00,0.000000,,2013-05-10 04:33:00,
2013-05-09 21:43:00,61.0,36.0,-100.00,ESE,119,0.0,0.0,40,0.00,,,0.00,0.000000,,2013-05-10 04:43:00,
2013-05-09 21:53:00,61.0,36.0,-100.00,ESE,119,0.0,0.0,40,0.00,,,0.00,0.000000,,2013-05-10 04:53:00,
2013-05-09 22:02:00,61.0,36.0,-100.00,ESE,119,0.0,0.0,40,0.00,,,0.00,0.000000,,2013-05-10 05:02:00,
2013-05-09 22:32:00,60.0,34.0,-100.00,SSE,162,0.0,0.0,37,0.00,,,0.00,0.000000,,2013-05-10 05:32:00,
2013-05-09 22:42:00,60.0,34.0,-100.00,SSE,162,0.0,0.0,37,0.00,,,0.00,0.000000,,2013-05-10 05:42:00,
2013-05-09 22:52:00,60.0,34.0,-100.00,SSE,162,0.0,0.0,37,0.00,,,0.00,0.000000,,2013-05-10 05:52:00,
2013-05-09 23:01:00,60.0,34.0,-100.00,SSE,162,0.0,0.0,37,0.00,,,0.00,0.000000,,2013-05-10 06:01:00,
2013-05-09 23:32:00,64.0,33.0,-100.00,ESE,116,0.0,0.0,31,0.00,,,0.00,0.000000,,2013-05-10 06:32:00,
2013-05-09 23:42:00,64.0,33.0,-100.00,ESE,116,0.0,0.0,31,0.00,,,0.00,0.000000,,2013-05-10 06:42:00,
2013-05-09 23:52:00,64.0,33.0,-100.00,ESE,116,0.0,0.0,31,0.00,,,0.00,0.000000,,2013-05-10 06:52:00,